Time;durP1;ratioP1;P1;durP2;ratioP2;P2;SDS_P1;SDS_P2;PMS_P1;PMS_P2;Temp;Humidity;BMP_temperature;BMP_pressure;BME280_temperature;BME280_humidity;BME280_pressure;Samples;Min_cycle;Max_cycle;Signal;HPM_P1;HPM_P2
2022/08/24 00:01:55;;;;;;;14.23;8.38;;;;;;;;;;5068564;28;20029;-63
2022/08/24 00:04:21;;;;;;;14.40;7.50;;;;;;;;;;5049502;28;20036;-63
2022/08/24 00:06:47;;;;;;;14.13;7.40;;;;;;;;;;5057236;28;20029;-63
2022/08/24 00:09:12;;;;;;;13.23;7.30;;;;;;;;;;5049665;28;20029;-64
2022/08/24 00:11:37;;;;;;;15.43;6.93;;;;;;;;;;5050782;28;20032;-64
2022/08/24 00:14:03;;;;;;;12.85;6.75;;;;;;;;;;5051690;28;20048;-65
2022/08/24 00:16:28;;;;;;;13.75;5.45;;;;;;;;;;5064102;28;20135;-64
2022/08/24 00:18:54;;;;;;;12.55;4.82;;;;;;;;;;5063359;28;20436;-64
2022/08/24 00:21:20;;;;;;;12.52;5.63;;;;;;;;;;5065172;28;20028;-65
2022/08/24 00:23:47;;;;;;;9.20;5.20;;;;;;;;;;5059365;28;20078;-64
2022/08/24 00:26:14;;;;;;;8.80;4.53;;;;;;;;;;5062049;28;20021;-65
2022/08/24 00:28:40;;;;;;;9.52;4.45;;;;;;;;;;5060207;28;20029;-64
2022/08/24 00:31:05;;;;;;;11.75;4.72;;;;;;;;;;5064753;28;20054;-64
2022/08/24 00:33:32;;;;;;;10.73;4.60;;;;;;;;;;5066765;28;20102;-64
2022/08/24 00:35:58;;;;;;;8.63;4.78;;;;;;;;;;5065833;28;20020;-65
2022/08/24 00:38:23;;;;;;;7.40;4.20;;;;;;;;;;5064161;28;20111;-64
2022/08/24 00:40:49;;;;;;;10.57;4.35;;;;;;;;;;5064475;28;20048;-65
2022/08/24 00:43:19;;;;;;;12.00;4.50;;;;;;;;;;5065929;28;20492;-64
2022/08/24 00:46:06;;;;;;;12.70;4.57;;;;;;;;;;5064065;28;20025;-65
2022/08/24 00:48:37;;;;;;;11.30;4.22;;;;;;;;;;5065815;28;20016;-65
2022/08/24 00:51:15;;;;;;;9.77;4.00;;;;;;;;;;5064969;28;20376;-66
2022/08/24 00:53:54;;;;;;;10.00;4.38;;;;;;;;;;5064605;28;20127;-65
2022/08/24 00:56:25;;;;;;;7.40;4.20;;;;;;;;;;5064600;28;20421;-66
2022/08/24 00:58:56;;;;;;;8.77;3.90;;;;;;;;;;5063448;28;20262;-66
2022/08/24 01:01:22;;;;;;;9.70;3.83;;;;;;;;;;5064353;28;20082;-66
2022/08/24 01:03:48;;;;;;;10.52;4.22;;;;;;;;;;5065398;28;20025;-66
2022/08/24 01:06:14;;;;;;;9.25;3.97;;;;;;;;;;5063079;28;20021;-66
2022/08/24 01:08:39;;;;;;;7.30;3.72;;;;;;;;;;5064488;28;20103;-67
2022/08/24 01:11:11;;;;;;;9.60;3.92;;;;;;;;;;5064911;28;20202;-66
2022/08/24 01:13:38;;;;;;;9.63;4.20;;;;;;;;;;5063791;28;20044;-66
2022/08/24 01:16:06;;;;;;;8.70;3.80;;;;;;;;;;5059032;28;20103;-67
2022/08/24 01:18:50;;;;;;;11.95;4.20;;;;;;;;;;5059194;28;20390;-66
2022/08/24 01:21:44;;;;;;;9.43;3.90;;;;;;;;;;5069774;28;20024;-67
2022/08/24 01:24:12;;;;;;;11.32;3.63;;;;;;;;;;5064573;28;20033;-67
2022/08/24 01:26:42;;;;;;;8.13;3.80;;;;;;;;;;5063076;28;20029;-66
2022/08/24 01:29:11;;;;;;;10.18;3.97;;;;;;;;;;5063646;28;20533;-67
2022/08/24 01:31:37;;;;;;;9.18;4.00;;;;;;;;;;5062109;28;20057;-66
2022/08/24 01:34:03;;;;;;;10.52;3.90;;;;;;;;;;5063978;28;20048;-67
2022/08/24 01:36:41;;;;;;;8.40;4.22;;;;;;;;;;5064382;28;20095;-67
2022/08/24 01:39:38;;;;;;;9.77;4.15;;;;;;;;;;5064142;28;20025;-65
2022/08/24 01:42:03;;;;;;;6.00;3.63;;;;;;;;;;5068734;28;20051;-65
2022/08/24 01:44:35;;;;;;;10.20;4.43;;;;;;;;;;5074358;28;20032;-66
2022/08/24 01:47:03;;;;;;;9.50;4.18;;;;;;;;;;5074171;28;20487;-66
2022/08/24 01:49:32;;;;;;;8.55;3.88;;;;;;;;;;5073889;28;20497;-67
2022/08/24 01:51:58;;;;;;;8.35;4.07;;;;;;;;;;5073882;28;20480;-67
2022/08/24 01:54:24;;;;;;;10.10;4.50;;;;;;;;;;5074044;28;20060;-66
2022/08/24 01:56:50;;;;;;;11.15;4.85;;;;;;;;;;5073741;28;20464;-66
2022/08/24 01:59:18;;;;;;;9.30;4.70;;;;;;;;;;5073811;28;20024;-67
2022/08/24 02:01:47;;;;;;;9.15;4.05;;;;;;;;;;5073880;28;20040;-67
2022/08/24 02:04:13;;;;;;;9.00;3.92;;;;;;;;;;5073568;28;20029;-67
2022/08/24 02:06:38;;;;;;;9.38;4.35;;;;;;;;;;5073736;28;20043;-67
2022/08/24 02:09:05;;;;;;;10.50;4.35;;;;;;;;;;5073672;28;20036;-67
2022/08/24 02:11:31;;;;;;;8.25;4.57;;;;;;;;;;5073550;28;20025;-66
2022/08/24 02:13:57;;;;;;;7.25;4.45;;;;;;;;;;5073703;28;20028;-66
2022/08/24 02:16:22;;;;;;;9.88;4.07;;;;;;;;;;5068943;28;20031;-67
2022/08/24 02:18:49;;;;;;;7.13;3.88;;;;;;;;;;5066120;28;20036;-66
2022/08/24 02:21:15;;;;;;;10.30;4.07;;;;;;;;;;5053492;28;20024;-66
2022/08/24 02:23:41;;;;;;;13.18;4.35;;;;;;;;;;5053396;28;20027;-66
2022/08/24 02:26:09;;;;;;;9.93;4.32;;;;;;;;;;5053601;28;20380;-66
2022/08/24 02:28:35;;;;;;;9.25;4.15;;;;;;;;;;5053281;28;20033;-65
2022/08/24 02:31:04;;;;;;;12.65;4.20;;;;;;;;;;5053254;28;20025;-66
2022/08/24 02:33:31;;;;;;;14.02;4.07;;;;;;;;;;5053254;28;20033;-66
2022/08/24 02:35:56;;;;;;;9.60;4.32;;;;;;;;;;5053282;28;20541;-66
2022/08/24 02:38:22;;;;;;;9.00;4.50;;;;;;;;;;5053072;28;20028;-66
2022/08/24 02:40:48;;;;;;;10.80;4.00;;;;;;;;;;5052247;28;20358;-66
2022/08/24 02:43:13;;;;;;;13.13;4.05;;;;;;;;;;5072923;28;20020;-67
2022/08/24 02:45:42;;;;;;;10.77;4.45;;;;;;;;;;5073124;28;20056;-66
2022/08/24 02:48:07;;;;;;;9.80;4.45;;;;;;;;;;5072987;28;20025;-67
2022/08/24 02:50:38;;;;;;;8.60;3.90;;;;;;;;;;5073049;28;20448;-66
2022/08/24 02:53:03;;;;;;;8.45;3.97;;;;;;;;;;5072829;28;20044;-65
2022/08/24 02:55:29;;;;;;;7.95;4.10;;;;;;;;;;5072934;28;20043;-65
2022/08/24 02:57:54;;;;;;;13.27;4.65;;;;;;;;;;5072756;28;20039;-66
2022/08/24 03:00:21;;;;;;;10.50;4.90;;;;;;;;;;5072488;28;20021;-67
2022/08/24 03:02:47;;;;;;;9.88;4.10;;;;;;;;;;5072802;28;20028;-67
2022/08/24 03:05:13;;;;;;;10.02;4.00;;;;;;;;;;5072637;28;20081;-66
2022/08/24 03:07:39;;;;;;;12.10;4.10;;;;;;;;;;5072633;28;20040;-67
2022/08/24 03:10:06;;;;;;;9.18;3.97;;;;;;;;;;5072685;28;20025;-66
2022/08/24 03:12:33;;;;;;;10.30;4.10;;;;;;;;;;5072806;28;20415;-66
2022/08/24 03:15:01;;;;;;;9.88;4.00;;;;;;;;;;5072453;28;20023;-66
2022/08/24 03:17:30;;;;;;;9.70;4.18;;;;;;;;;;5072426;28;20103;-66
2022/08/24 03:19:56;;;;;;;7.93;3.90;;;;;;;;;;5072766;28;20390;-65
2022/08/24 03:22:21;;;;;;;10.18;4.03;;;;;;;;;;5072588;28;20032;-66
2022/08/24 03:24:47;;;;;;;11.60;3.70;;;;;;;;;;5072404;28;20367;-66
2022/08/24 03:27:13;;;;;;;8.85;3.85;;;;;;;;;;5072415;28;20104;-66
2022/08/24 03:29:38;;;;;;;6.80;3.47;;;;;;;;;;5072372;28;20078;-66
2022/08/24 03:32:04;;;;;;;8.63;3.80;;;;;;;;;;5072665;28;20021;-67
2022/08/24 03:34:29;;;;;;;9.98;3.60;;;;;;;;;;5072575;28;20379;-67
2022/08/24 03:36:55;;;;;;;8.48;4.18;;;;;;;;;;5072167;28;20025;-66
2022/08/24 03:39:20;;;;;;;8.50;3.88;;;;;;;;;;5072384;28;20028;-67
2022/08/24 03:41:46;;;;;;;9.90;3.88;;;;;;;;;;5072135;28;20395;-65
2022/08/24 03:44:11;;;;;;;8.65;3.72;;;;;;;;;;5072129;28;20067;-66
2022/08/24 03:46:38;;;;;;;8.13;3.78;;;;;;;;;;5072375;28;20075;-64
2022/08/24 03:49:07;;;;;;;10.63;4.22;;;;;;;;;;5072416;28;20154;-64
2022/08/24 03:51:34;;;;;;;6.65;3.70;;;;;;;;;;5072392;28;20028;-65
2022/08/24 03:54:00;;;;;;;8.60;3.83;;;;;;;;;;5072050;28;20048;-64
2022/08/24 03:56:26;;;;;;;9.60;3.50;;;;;;;;;;5076158;28;20098;-64
2022/08/24 03:58:53;;;;;;;9.60;3.85;;;;;;;;;;5075935;28;20032;-64
2022/08/24 04:01:19;;;;;;;7.75;3.08;;;;;;;;;;5076072;28;20527;-65
2022/08/24 04:03:47;;;;;;;6.28;3.70;;;;;;;;;;5076041;28;20118;-65
2022/08/24 04:06:15;;;;;;;8.32;3.78;;;;;;;;;;5075873;28;20029;-66
2022/08/24 04:08:41;;;;;;;10.35;3.50;;;;;;;;;;5075942;28;20486;-64
2022/08/24 04:11:16;;;;;;;9.73;3.80;;;;;;;;;;5075891;28;20024;-65
2022/08/24 04:13:43;;;;;;;9.18;3.72;;;;;;;;;;5075692;28;20060;-65
2022/08/24 04:16:17;;;;;;;9.93;4.22;;;;;;;;;;5075864;28;20024;-66
2022/08/24 04:18:43;;;;;;;8.90;3.83;;;;;;;;;;5075696;28;20108;-64
2022/08/24 04:21:26;;;;;;;7.15;3.75;;;;;;;;;;5075792;28;20430;-65
2022/08/24 04:23:52;;;;;;;8.10;3.60;;;;;;;;;;5075683;28;20065;-64
2022/08/24 04:26:20;;;;;;;7.40;4.10;;;;;;;;;;5075563;28;20055;-64
2022/08/24 04:28:45;;;;;;;9.38;3.97;;;;;;;;;;5075121;28;20028;-65
2022/08/24 04:31:12;;;;;;;9.70;4.00;;;;;;;;;;5075728;28;20357;-67
2022/08/24 04:33:38;;;;;;;10.18;4.03;;;;;;;;;;5075555;28;20379;-67
2022/08/24 04:36:08;;;;;;;8.20;4.10;;;;;;;;;;5075431;28;20020;-66
2022/08/24 04:38:35;;;;;;;9.93;4.72;;;;;;;;;;5071271;28;20055;-66
2022/08/24 04:41:04;;;;;;;9.60;4.72;;;;;;;;;;5062125;28;20025;-66
2022/08/24 04:43:30;;;;;;;9.07;3.83;;;;;;;;;;5063024;28;20024;-67
2022/08/24 04:45:55;;;;;;;6.80;4.40;;;;;;;;;;5055341;28;20024;-67
2022/08/24 04:48:21;;;;;;;10.50;4.38;;;;;;;;;;5054888;28;20037;-66
2022/08/24 04:50:48;;;;;;;7.90;3.78;;;;;;;;;;5055289;28;20468;-67
2022/08/24 04:53:14;;;;;;;8.35;3.60;;;;;;;;;;5054856;28;20094;-67
2022/08/24 04:55:46;;;;;;;8.90;4.05;;;;;;;;;;5055084;28;20490;-67
2022/08/24 04:58:13;;;;;;;10.77;3.90;;;;;;;;;;5054726;28;20455;-67
2022/08/24 05:00:39;;;;;;;9.07;4.25;;;;;;;;;;5054876;28;20052;-66
2022/08/24 05:03:05;;;;;;;9.52;4.50;;;;;;;;;;5055130;28;20480;-67
2022/08/24 05:05:31;;;;;;;11.82;4.07;;;;;;;;;;5053661;28;20029;-67
2022/08/24 05:07:57;;;;;;;8.68;4.03;;;;;;;;;;5054609;28;20020;-67
2022/08/24 05:10:23;;;;;;;12.60;4.07;;;;;;;;;;5054900;28;20025;-67
2022/08/24 05:12:49;;;;;;;8.80;4.28;;;;;;;;;;5054835;28;20035;-66
2022/08/24 05:15:15;;;;;;;9.25;4.38;;;;;;;;;;5054835;28;20025;-66
2022/08/24 05:17:41;;;;;;;10.68;4.15;;;;;;;;;;5054576;28;20025;-67
2022/08/24 05:20:10;;;;;;;12.05;4.65;;;;;;;;;;5054706;28;20035;-67
2022/08/24 05:22:36;;;;;;;15.82;5.53;;;;;;;;;;5053408;28;20025;-67
2022/08/24 05:25:04;;;;;;;11.32;4.43;;;;;;;;;;5054436;28;20035;-66
2022/08/24 05:27:29;;;;;;;9.02;4.47;;;;;;;;;;5054836;28;20471;-67
2022/08/24 05:29:55;;;;;;;8.52;4.13;;;;;;;;;;5054499;28;20025;-67
2022/08/24 05:32:21;;;;;;;12.30;3.97;;;;;;;;;;5054276;28;20025;-66
2022/08/24 05:34:46;;;;;;;10.52;4.40;;;;;;;;;;5054328;28;20420;-67
2022/08/24 05:37:12;;;;;;;8.20;4.10;;;;;;;;;;5054128;28;20040;-66
2022/08/24 05:39:37;;;;;;;12.35;4.35;;;;;;;;;;5054193;28;20033;-66
2022/08/24 05:42:03;;;;;;;10.18;3.60;;;;;;;;;;5065248;28;20085;-66
2022/08/24 05:44:29;;;;;;;10.35;4.40;;;;;;;;;;5074174;28;20475;-67
2022/08/24 05:46:57;;;;;;;12.80;3.92;;;;;;;;;;5074199;28;20054;-67
2022/08/24 05:49:24;;;;;;;9.00;4.13;;;;;;;;;;5074054;28;20035;-64
2022/08/24 05:51:49;;;;;;;9.15;4.03;;;;;;;;;;5074156;28;20024;-65
2022/08/24 05:54:15;;;;;;;8.82;3.80;;;;;;;;;;5073572;28;20041;-66
2022/08/24 05:56:41;;;;;;;8.18;3.75;;;;;;;;;;5073782;28;20024;-64
2022/08/24 05:59:06;;;;;;;8.80;3.55;;;;;;;;;;5073930;28;20021;-66
2022/08/24 06:01:32;;;;;;;10.25;4.20;;;;;;;;;;5073781;28;20047;-66
2022/08/24 06:03:59;;;;;;;7.30;3.33;;;;;;;;;;5073588;28;20032;-66
2022/08/24 06:06:25;;;;;;;8.18;3.30;;;;;;;;;;5073804;28;20021;-65
2022/08/24 06:08:54;;;;;;;7.80;3.78;;;;;;;;;;5073481;28;20035;-66
2022/08/24 06:11:35;;;;;;;10.93;3.47;;;;;;;;;;5072204;28;20196;-67
2022/08/24 06:14:05;;;;;;;9.57;3.95;;;;;;;;;;5073500;28;20431;-67
2022/08/24 06:16:33;;;;;;;;;;;;;;;;;;5073185;28;20055;-67
2022/08/24 06:18:58;;;;;;;7.03;3.42;;;;;;;;;;5073364;28;19924;-65
2022/08/24 06:21:26;;;;;;;10.23;3.80;;;;;;;;;;5073529;28;20024;-65
2022/08/24 06:23:51;;;;;;;8.35;3.47;;;;;;;;;;5073171;28;20395;-65
2022/08/24 06:29:05;;;;;;;9.05;3.83;;;;;;;;;;5073669;28;20086;-67
2022/08/24 06:31:38;;;;;;;11.07;3.78;;;;;;;;;;5073013;28;20040;-66
2022/08/24 06:34:04;;;;;;;8.10;3.50;;;;;;;;;;5073242;28;20024;-65
2022/08/24 06:36:29;;;;;;;9.55;3.55;;;;;;;;;;5073108;28;20029;-65
2022/08/24 06:38:55;;;;;;;8.35;3.60;;;;;;;;;;5072896;28;20123;-65
2022/08/24 06:41:20;;;;;;;9.38;3.78;;;;;;;;;;5072995;28;20025;-67
2022/08/24 06:43:46;;;;;;;14.18;4.25;;;;;;;;;;5065351;28;20032;-67
2022/08/24 06:46:12;;;;;;;10.95;3.35;;;;;;;;;;5058833;28;20029;-67
2022/08/24 06:48:38;;;;;;;9.98;3.97;;;;;;;;;;5061281;28;20086;-66
2022/08/24 06:51:15;;;;;;;9.88;3.50;;;;;;;;;;5053129;28;20456;-66
2022/08/24 06:53:41;;;;;;;7.90;3.38;;;;;;;;;;5052378;28;20123;-67
2022/08/24 06:56:07;;;;;;;9.75;3.70;;;;;;;;;;5053007;28;20025;-65
2022/08/24 06:58:33;;;;;;;9.48;3.35;;;;;;;;;;5052773;28;20364;-66
2022/08/24 07:01:15;;;;;;;5.45;2.97;;;;;;;;;;5053884;28;20100;-64
2022/08/24 07:03:40;;;;;;;7.75;3.33;;;;;;;;;;5055478;28;20037;-66
2022/08/24 07:06:09;;;;;;;6.47;3.42;;;;;;;;;;5062400;28;20029;-65
2022/08/24 07:08:35;;;;;;;9.07;3.70;;;;;;;;;;5053222;28;20036;-66
2022/08/24 07:11:01;;;;;;;12.75;3.70;;;;;;;;;;5055240;28;20498;-65
2022/08/24 07:13:29;;;;;;;10.73;3.55;;;;;;;;;;5058630;28;20017;-65
2022/08/24 07:15:56;;;;;;;7.43;3.40;;;;;;;;;;5057957;28;20149;-64
2022/08/24 07:18:21;;;;;;;8.18;3.35;;;;;;;;;;5056441;28;20029;-65
2022/08/24 07:20:48;;;;;;;8.07;3.50;;;;;;;;;;5053715;28;20024;-67
2022/08/24 07:23:14;;;;;;;7.47;3.50;;;;;;;;;;5053968;28;20044;-65
2022/08/24 07:25:44;;;;;;;11.98;3.80;;;;;;;;;;5053288;28;20435;-65
2022/08/24 07:28:10;;;;;;;7.20;3.30;;;;;;;;;;5068597;28;20123;-65
2022/08/24 07:30:37;;;;;;;7.00;3.35;;;;;;;;;;5067143;28;20024;-66
2022/08/24 07:33:03;;;;;;;8.13;3.50;;;;;;;;;;5067518;28;20025;-66
2022/08/24 07:35:31;;;;;;;8.13;3.60;;;;;;;;;;5062417;28;20090;-65
2022/08/24 07:37:57;;;;;;;10.80;3.35;;;;;;;;;;5058325;28;20036;-65
2022/08/24 07:40:24;;;;;;;8.85;3.42;;;;;;;;;;5059084;28;20035;-64
2022/08/24 07:42:52;;;;;;;10.80;3.30;;;;;;;;;;5062887;28;20024;-64
2022/08/24 07:45:18;;;;;;;9.00;3.47;;;;;;;;;;5066612;28;20025;-64
2022/08/24 07:47:44;;;;;;;7.22;2.83;;;;;;;;;;5068171;28;20039;-64
2022/08/24 07:50:11;;;;;;;9.77;3.00;;;;;;;;;;5064822;28;20090;-65
2022/08/24 07:52:36;;;;;;;6.80;3.05;;;;;;;;;;5062173;28;20134;-64
2022/08/24 07:55:04;;;;;;;7.13;3.20;;;;;;;;;;5066538;28;20109;-65
2022/08/24 07:57:30;;;;;;;7.78;3.22;;;;;;;;;;5066309;28;20092;-64
2022/08/24 07:59:58;;;;;;;8.85;2.97;;;;;;;;;;5068453;28;20100;-65
2022/08/24 08:02:24;;;;;;;7.80;3.17;;;;;;;;;;5071680;28;20031;-64
2022/08/24 08:04:49;;;;;;;10.45;3.10;;;;;;;;;;5072508;28;20028;-64
2022/08/24 08:07:16;;;;;;;7.10;3.30;;;;;;;;;;5071041;28;20036;-64
2022/08/24 08:09:41;;;;;;;13.02;4.07;;;;;;;;;;5071641;28;20471;-65
2022/08/24 08:12:07;;;;;;;5.63;3.08;;;;;;;;;;5068848;28;20100;-64
2022/08/24 08:14:34;;;;;;;8.07;3.10;;;;;;;;;;5056002;28;20033;-64
2022/08/24 08:17:00;;;;;;;7.88;3.55;;;;;;;;;;5065737;28;20027;-65
2022/08/24 08:19:25;;;;;;;5.38;2.90;;;;;;;;;;5065422;28;20029;-65
2022/08/24 08:24:38;;;;;;;7.60;3.28;;;;;;;;;;5066254;28;20189;-65
2022/08/24 08:27:04;;;;;;;9.63;3.40;;;;;;;;;;5053145;28;20037;-66
2022/08/24 08:29:32;;;;;;;8.35;3.22;;;;;;;;;;5071342;28;20372;-64
2022/08/24 08:31:57;;;;;;;8.30;3.25;;;;;;;;;;5067651;28;20105;-65
2022/08/24 08:34:23;;;;;;;7.63;3.35;;;;;;;;;;5062372;28;20056;-64
2022/08/24 08:36:49;;;;;;;8.00;3.35;;;;;;;;;;5069329;28;20028;-65
2022/08/24 08:39:17;;;;;;;7.82;3.50;;;;;;;;;;5060269;28;20032;-65
2022/08/24 08:42:04;;;;;;;6.97;3.70;;;;;;;;;;5057572;28;20036;-64
2022/08/24 08:44:58;;;;;;;8.75;3.78;;;;;;;;;;5054076;28;20158;-64
2022/08/24 08:47:26;;;;;;;10.38;3.80;;;;;;;;;;5063376;28;20411;-64
2022/08/24 08:50:05;;;;;;;8.02;3.58;;;;;;;;;;5053236;28;20029;-64
2022/08/24 08:52:37;;;;;;;6.30;3.60;;;;;;;;;;5055272;28;20124;-65
2022/08/24 08:55:39;;;;;;;6.70;3.25;;;;;;;;;;5064453;28;20274;-64
2022/08/24 08:58:10;;;;;;;9.38;3.33;;;;;;;;;;5064572;28;20036;-64
2022/08/24 09:01:02;;;;;;;5.50;2.83;;;;;;;;;;5058506;28;20391;-66
2022/08/24 09:03:31;;;;;;;10.27;3.60;;;;;;;;;;5069537;28;20375;-66
2022/08/24 09:06:33;;;;;;;10.65;3.58;;;;;;;;;;5071581;28;20028;-64
2022/08/24 09:09:02;;;;;;;8.20;3.53;;;;;;;;;;5063471;28;20044;-64
2022/08/24 09:11:58;;;;;;;7.50;3.50;;;;;;;;;;5052677;28;20021;-67
2022/08/24 09:14:53;;;;;;;7.05;3.45;;;;;;;;;;5069264;28;20111;-65
2022/08/24 09:17:52;;;;;;;9.57;3.20;;;;;;;;;;5058837;28;20033;-64
2022/08/24 09:20:39;;;;;;;12.60;3.83;;;;;;;;;;5059373;28;20059;-65
2022/08/24 09:23:20;;;;;;;6.85;3.20;;;;;;;;;;5056031;28;20055;-64
2022/08/24 09:26:01;;;;;;;8.48;3.08;;;;;;;;;;5061871;28;20043;-65
2022/08/24 09:28:43;;;;;;;7.32;3.75;;;;;;;;;;5063467;28;20112;-64
2022/08/24 09:31:21;;;;;;;6.80;3.47;;;;;;;;;;5063064;28;20495;-64
2022/08/24 09:34:17;;;;;;;5.97;3.20;;;;;;;;;;5053281;28;20033;-64
2022/08/24 09:36:52;;;;;;;9.48;3.60;;;;;;;;;;5069903;28;20389;-64
2022/08/24 09:39:41;;;;;;;12.40;3.60;;;;;;;;;;5056931;28;20039;-65
2022/08/24 09:42:09;;;;;;;10.05;3.25;;;;;;;;;;5063209;28;20476;-63
2022/08/24 09:44:53;;;;;;;13.43;3.60;;;;;;;;;;5063546;28;20029;-63
2022/08/24 09:47:43;;;;;;;7.22;3.25;;;;;;;;;;5064777;28;20033;-64
2022/08/24 09:50:46;;;;;;;10.23;3.50;;;;;;;;;;5059563;28;20032;-65
2022/08/24 09:53:29;;;;;;;9.43;3.20;;;;;;;;;;5058986;28;20499;-65
2022/08/24 09:56:23;;;;;;;6.88;3.17;;;;;;;;;;5069070;28;20103;-66
2022/08/24 09:58:56;;;;;;;10.02;3.60;;;;;;;;;;5062583;28;20123;-66
2022/08/24 10:01:29;;;;;;;8.32;3.40;;;;;;;;;;5052904;28;20040;-66
2022/08/24 10:04:07;;;;;;;11.38;3.72;;;;;;;;;;5069271;28;20031;-63
2022/08/24 10:06:47;;;;;;;9.35;3.58;;;;;;;;;;5069362;28;20021;-64
2022/08/24 10:09:32;;;;;;;11.07;3.33;;;;;;;;;;5068673;28;20025;-63
2022/08/24 10:12:18;;;;;;;9.45;3.63;;;;;;;;;;5062817;28;20021;-66
2022/08/24 10:14:56;;;;;;;12.18;3.60;;;;;;;;;;5063412;28;20028;-66
2022/08/24 10:17:37;;;;;;;8.00;3.30;;;;;;;;;;5064332;28;20065;-66
2022/08/24 10:20:24;;;;;;;9.15;3.42;;;;;;;;;;5058097;28;20025;-66
2022/08/24 10:23:01;;;;;;;7.47;3.42;;;;;;;;;;5060575;28;20028;-66
2022/08/24 10:25:45;;;;;;;8.38;3.30;;;;;;;;;;5064186;28;20025;-66
2022/08/24 10:28:46;;;;;;;7.35;3.33;;;;;;;;;;5055162;28;20029;-66
2022/08/24 10:31:24;;;;;;;6.05;3.42;;;;;;;;;;5049227;28;20099;-66
2022/08/24 10:34:07;;;;;;;8.00;3.45;;;;;;;;;;5062602;28;20028;-65
2022/08/24 10:36:58;;;;;;;9.40;4.38;;;;;;;;;;5055554;28;20549;-66
2022/08/24 10:39:42;;;;;;;7.55;3.38;;;;;;;;;;5052686;28;20039;-65
2022/08/24 10:45:34;;;;;;;8.18;3.20;;;;;;;;;;5062287;28;20067;-66
2022/08/24 10:48:39;;;;;;;7.43;3.00;;;;;;;;;;5060701;28;20043;-67
2022/08/24 10:51:28;;;;;;;8.18;3.30;;;;;;;;;;5060529;28;20387;-66
2022/08/24 10:53:57;;;;;;;6.15;3.13;;;;;;;;;;5057641;28;20503;-66
2022/08/24 10:56:39;;;;;;;5.53;3.10;;;;;;;;;;5064026;28;20043;-66
2022/08/24 10:59:16;;;;;;;9.20;3.58;;;;;;;;;;5050826;28;20044;-67
2022/08/24 11:02:01;;;;;;;5.97;3.25;;;;;;;;;;5060790;28;20020;-64
2022/08/24 11:04:29;;;;;;;9.18;3.65;;;;;;;;;;5065316;28;20118;-66
2022/08/24 11:07:20;;;;;;;6.93;3.35;;;;;;;;;;5067708;28;20422;-66
2022/08/24 11:09:52;;;;;;;10.77;3.30;;;;;;;;;;5064699;28;20122;-64
2022/08/24 11:12:33;;;;;;;7.35;3.00;;;;;;;;;;5056471;28;20028;-66
2022/08/24 11:15:03;;;;;;;8.82;3.08;;;;;;;;;;5054401;28;20056;-66
2022/08/24 11:17:31;;;;;;;9.70;3.50;;;;;;;;;;5063590;28;20056;-66
2022/08/24 11:19:58;;;;;;;7.40;3.70;;;;;;;;;;5057973;28;20024;-66
2022/08/24 11:22:55;;;;;;;7.65;3.35;;;;;;;;;;5065789;28;20085;-67
2022/08/24 11:25:26;;;;;;;10.35;3.40;;;;;;;;;;5056503;28;21355;-66
2022/08/24 11:27:58;;;;;;;9.13;3.25;;;;;;;;;;5051356;28;20520;-67
2022/08/24 11:30:28;;;;;;;6.10;3.60;;;;;;;;;;5054217;28;20480;-64
2022/08/24 11:33:01;;;;;;;;;;;;;;;;;;5057811;28;20025;-66
2022/08/24 11:35:32;;;;;;;12.20;6.72;;;;;;;;;;5069045;28;19937;-67
2022/08/24 11:38:17;;;;;;;13.02;8.55;;;;;;;;;;5069109;28;20024;-64
2022/08/24 11:40:49;;;;;;;13.38;8.45;;;;;;;;;;5062251;28;20025;-63
2022/08/24 11:43:31;;;;;;;13.48;7.78;;;;;;;;;;5047912;28;20056;-64
2022/08/24 11:46:02;;;;;;;10.85;6.93;;;;;;;;;;5068051;28;20021;-65
2022/08/24 11:48:28;;;;;;;16.90;5.63;;;;;;;;;;5056840;28;20056;-64
2022/08/24 11:50:56;;;;;;;11.15;5.50;;;;;;;;;;5056896;28;20064;-66
2022/08/24 11:53:26;;;;;;;10.82;6.03;;;;;;;;;;5047028;28;20084;-65
2022/08/24 11:56:04;;;;;;;10.07;4.55;;;;;;;;;;5059826;28;20047;-66
2022/08/24 11:58:53;;;;;;;7.88;3.70;;;;;;;;;;5054019;28;20028;-64
2022/08/24 12:01:26;;;;;;;7.57;4.28;;;;;;;;;;5062877;28;20040;-64
2022/08/24 12:03:58;;;;;;;30.77;6.43;;;;;;;;;;5061986;28;20552;-64
2022/08/24 12:06:41;;;;;;;7.53;3.65;;;;;;;;;;5055310;28;20120;-63
2022/08/24 12:09:16;;;;;;;6.68;3.65;;;;;;;;;;5049808;28;20507;-63
2022/08/24 12:12:04;;;;;;;7.00;3.60;;;;;;;;;;5055723;28;20487;-63
2022/08/24 12:14:45;;;;;;;6.40;3.33;;;;;;;;;;5058372;28;20499;-66
2022/08/24 12:17:35;;;;;;;9.32;3.35;;;;;;;;;;5059555;28;20115;-65
2022/08/24 12:20:10;;;;;;;;;;;;;;;;;;5053173;28;20419;-65
2022/08/24 12:22:38;;;;;;;9.35;3.13;;;;;;;;;;5059013;28;20384;-66
2022/08/24 12:26:00;;;;;;;6.55;3.60;;;;;;;;;;5054934;28;20056;-65
2022/08/24 12:27:54;;;;;;;7.93;3.80;;;;;;;;;;5069969;28;20406;-66
2022/08/24 12:30:19;;;;;;;6.50;2.72;;;;;;;;;;5062758;28;20079;-64
2022/08/24 12:32:50;;;;;;;10.23;3.20;;;;;;;;;;5063972;28;20024;-63
2022/08/24 12:35:27;;;;;;;6.82;3.10;;;;;;;;;;5067736;28;20028;-65
2022/08/24 12:37:59;;;;;;;7.45;4.22;;;;;;;;;;5058980;28;20109;-64
2022/08/24 12:40:35;;;;;;;6.97;4.05;;;;;;;;;;5063678;28;20091;-67
2022/08/24 12:43:19;;;;;;;7.93;3.72;;;;;;;;;;5065701;28;20028;-63
2022/08/24 12:45:45;;;;;;;6.50;3.10;;;;;;;;;;5071783;28;20043;-64
2022/08/24 12:48:38;;;;;;;5.68;3.08;;;;;;;;;;5070178;28;20063;-64
2022/08/24 12:51:06;;;;;;;9.23;3.85;;;;;;;;;;5065364;28;20021;-64
2022/08/24 12:53:47;;;;;;;6.35;3.65;;;;;;;;;;5060829;28;20128;-65
2022/08/24 12:56:30;;;;;;;6.75;3.50;;;;;;;;;;5058172;28;20029;-64
2022/08/24 12:58:59;;;;;;;8.65;3.70;;;;;;;;;;5059872;28;20071;-64
2022/08/24 13:01:28;;;;;;;4.78;2.55;;;;;;;;;;5055285;28;20039;-64
2022/08/24 13:04:31;;;;;;;6.75;2.95;;;;;;;;;;5068480;28;20043;-64
2022/08/24 13:07:17;;;;;;;8.30;3.40;;;;;;;;;;5064711;28;20107;-64
2022/08/24 13:09:56;;;;;;;6.65;4.18;;;;;;;;;;5065406;28;20033;-65
2022/08/24 13:12:37;;;;;;;10.07;4.20;;;;;;;;;;5051403;28;20033;-65
2022/08/24 13:15:21;;;;;;;7.25;4.35;;;;;;;;;;5050527;28;20042;-64
2022/08/24 13:17:57;;;;;;;8.13;4.57;;;;;;;;;;5050777;28;20029;-64
2022/08/24 13:20:37;;;;;;;12.02;4.97;;;;;;;;;;5069991;28;20375;-64
2022/08/24 13:23:12;;;;;;;8.13;5.13;;;;;;;;;;5058244;28;20040;-64
2022/08/24 13:25:46;;;;;;;10.38;5.50;;;;;;;;;;5061365;28;20040;-65
2022/08/24 13:28:20;;;;;;;10.73;5.70;;;;;;;;;;5066200;28;20391;-66
2022/08/24 13:30:52;;;;;;;9.95;5.10;;;;;;;;;;5055225;28;20025;-64
2022/08/24 13:33:25;;;;;;;10.25;4.70;;;;;;;;;;5055551;28;20036;-64
2022/08/24 13:35:55;;;;;;;8.65;4.30;;;;;;;;;;5062662;28;20380;-64
2022/08/24 13:38:33;;;;;;;9.25;5.50;;;;;;;;;;5061341;28;20571;-64
2022/08/24 13:41:12;;;;;;;11.85;4.57;;;;;;;;;;5064647;28;20503;-64
2022/08/24 13:43:37;;;;;;;9.68;3.70;;;;;;;;;;5059335;28;20040;-65
2022/08/24 13:46:41;;;;;;;8.60;4.18;;;;;;;;;;5064904;28;20031;-67
2022/08/24 13:49:35;;;;;;;11.05;5.90;;;;;;;;;;5020158;28;20575;-65
2022/08/24 13:52:21;;;;;;;11.95;5.18;;;;;;;;;;5014943;28;20412;-66
2022/08/24 13:55:01;;;;;;;11.30;4.85;;;;;;;;;;5025766;28;20083;-65
2022/08/24 13:57:44;;;;;;;9.10;3.92;;;;;;;;;;5028133;28;20079;-63
2022/08/24 14:00:28;;;;;;;9.25;3.53;;;;;;;;;;5025522;28;20098;-64
2022/08/24 14:03:11;;;;;;;9.18;3.17;;;;;;;;;;5027791;28;20029;-64
2022/08/24 14:05:43;;;;;;;8.77;3.40;;;;;;;;;;5012758;28;20095;-63
2022/08/24 14:08:12;;;;;;;6.93;3.55;;;;;;;;;;5015343;28;20037;-64
2022/08/24 14:10:40;;;;;;;9.07;3.63;;;;;;;;;;5021605;28;20488;-66
2022/08/24 14:13:26;;;;;;;8.55;3.30;;;;;;;;;;5006141;28;20034;-64
2022/08/24 14:19:38;;;;;;;6.68;3.20;;;;;;;;;;5026064;28;20120;-64
2022/08/24 14:22:09;;;;;;;7.45;3.35;;;;;;;;;;5016597;28;20029;-64
2022/08/24 14:24:38;;;;;;;7.68;3.40;;;;;;;;;;5015801;28;20034;-64
2022/08/24 14:27:28;;;;;;;8.13;3.25;;;;;;;;;;5048728;28;20045;-64
2022/08/24 14:30:16;;;;;;;8.98;3.13;;;;;;;;;;5061444;28;20025;-64
2022/08/24 14:32:59;;;;;;;7.78;3.03;;;;;;;;;;5054085;28;20052;-66
2022/08/24 14:35:36;;;;;;;10.32;3.92;;;;;;;;;;5052083;28;20029;-65
2022/08/24 14:38:23;;;;;;;9.02;3.20;;;;;;;;;;5051792;28;20033;-66
2022/08/24 14:41:07;;;;;;;7.95;3.22;;;;;;;;;;5053529;28;20407;-65
2022/08/24 14:43:33;;;;;;;6.65;2.97;;;;;;;;;;5068853;28;20101;-65
2022/08/24 14:46:17;;;;;;;7.40;2.92;;;;;;;;;;5053711;28;20032;-65
2022/08/24 14:49:10;;;;;;;9.82;2.72;;;;;;;;;;5052611;28;20017;-64
2022/08/24 14:51:59;;;;;;;6.07;3.50;;;;;;;;;;5050869;28;20104;-63
2022/08/24 14:54:35;;;;;;;6.43;2.58;;;;;;;;;;5066547;28;20514;-64
2022/08/24 14:57:16;;;;;;;9.57;3.05;;;;;;;;;;5048926;28;20061;-64
2022/08/24 14:59:57;;;;;;;6.63;2.72;;;;;;;;;;5056809;28;20054;-64
2022/08/24 15:02:43;;;;;;;4.85;2.88;;;;;;;;;;5054144;28;20456;-64
2022/08/24 15:05:27;;;;;;;8.50;2.97;;;;;;;;;;5058933;28;20071;-64
2022/08/24 15:08:00;;;;;;;8.50;3.10;;;;;;;;;;5063160;28;20035;-66
2022/08/24 15:10:45;;;;;;;14.20;4.00;;;;;;;;;;5057125;28;20115;-64
2022/08/24 15:13:38;;;;;;;6.00;2.97;;;;;;;;;;5064934;28;20025;-66
2022/08/24 15:16:11;;;;;;;9.63;2.85;;;;;;;;;;5058731;28;20037;-66
2022/08/24 15:18:48;;;;;;;7.10;2.92;;;;;;;;;;5059293;28;20044;-67
2022/08/24 15:21:42;;;;;;;6.88;2.97;;;;;;;;;;5062194;28;20111;-67
2022/08/24 15:24:19;;;;;;;5.80;2.92;;;;;;;;;;5061376;28;20440;-67
2022/08/24 15:27:12;;;;;;;10.77;2.88;;;;;;;;;;5047638;28;20044;-65